Time;durP1;ratioP1;P1;durP2;ratioP2;P2;SDS_P1;SDS_P2;PMS_P1;PMS_P2;Temp;Humidity;BMP_temperature;BMP_pressure;BME280_temperature;BME280_humidity;BME280_pressure;Samples;Min_cycle;Max_cycle;Signal;HPM_P1;HPM_P2
2021/01/09 00:01:22;653927.00;2.18;1127.43;0.00;0.00;0.62;;;;;5.90;1.00;;;;;;2288596;60;1653;-86
2021/01/09 00:03:49;602974.00;2.01;1039.36;0.00;0.00;0.62;;;;;5.80;1.00;;;;;;2288864;60;1141;-87
2021/01/09 00:06:24;844733.00;2.82;1459.25;0.00;0.00;0.62;;;;;6.00;1.00;;;;;;2288788;60;1397;-85
2021/01/09 00:08:51;658810.00;2.20;1135.88;0.00;0.00;0.62;;;;;5.90;1.00;;;;;;2288819;60;1103;-86
2021/01/09 00:11:28;620110.00;2.07;1068.96;0.00;0.00;0.62;;;;;5.70;1.00;;;;;;2288717;60;1132;-86
2021/01/09 00:14:08;661237.00;2.20;1140.08;0.00;0.00;0.62;;;;;5.80;1.00;;;;;;2288853;60;1032;-85
2021/01/09 00:17:01;788687.00;2.63;1361.40;0.00;0.00;0.62;;;;;5.70;1.00;;;;;;2275978;61;2008;-86
2021/01/09 00:19:41;686787.00;2.29;1184.33;0.00;0.00;0.62;;;;;5.70;1.00;;;;;;2276056;61;1118;-84
2021/01/09 00:22:41;130458368.00;434.86;89965072.00;0.00;0.00;0.62;;;;;5.80;1.00;;;;;;2276067;61;1082;-85
2021/01/09 00:25:16;1001998.00;3.34;1736.01;77313.00;0.26;134.40;;;;;5.70;1.00;;;;;;2276047;61;1309;-86
2021/01/09 00:27:47;881479.00;2.94;1523.61;68792.00;0.23;119.67;;;;;5.60;1.00;;;;;;2276051;61;1117;-85
2021/01/09 00:30:20;1112005.00;3.71;1931.91;86875.00;0.29;150.91;;;;;5.60;1.00;;;;;;2263925;61;945;-86
2021/01/09 00:32:57;1133983.00;3.78;1971.30;90240.00;0.30;156.72;;;;;5.60;1.00;;;;;;2263947;61;1089;-86
2021/01/09 00:35:41;922776.00;3.08;1596.16;84004.00;0.28;145.95;;;;;5.50;1.00;;;;;;2274144;61;2081;-85
2021/01/09 00:38:12;823277.00;2.74;1421.75;92273.00;0.31;160.23;;;;;5.40;1.00;;;;;;2276045;61;1117;-86
2021/01/09 00:40:48;982342.00;3.27;1701.22;91262.00;0.30;158.49;;;;;5.50;1.00;;;;;;2275946;61;1053;-85
2021/01/09 00:43:29;739328.00;2.46;1275.51;74618.00;0.25;129.74;;;;;5.50;1.00;;;;;;2276017;61;1130;-86
2021/01/09 00:46:01;1024051.00;3.41;1775.12;86617.00;0.29;150.47;;;;;5.50;1.00;;;;;;2275964;61;1277;-85
2021/01/09 00:48:33;613657.00;2.05;1057.81;0.00;0.00;0.62;;;;;5.50;1.00;;;;;;2283639;60;1138;-86
2021/01/09 00:51:08;657682.00;2.19;1133.93;0.00;0.00;0.62;;;;;5.60;1.00;;;;;;2288712;60;1017;-86
2021/01/09 00:53:45;583694.00;1.95;1006.07;0.00;0.00;0.62;;;;;5.50;1.00;;;;;;2288706;60;1153;-86
2021/01/09 00:56:22;755938.00;2.52;1304.38;0.00;0.00;0.62;;;;;5.50;1.00;;;;;;2288615;60;1915;-85
2021/01/09 00:58:53;670027.00;2.23;1155.30;0.00;0.00;0.62;;;;;5.60;1.00;;;;;;2288662;60;1148;-85
2021/01/09 01:01:40;695120.00;2.32;1198.78;0.00;0.00;0.62;;;;;5.50;1.00;;;;;;2288637;60;1130;-87
2021/01/09 01:04:34;690084.00;2.30;1190.05;84725.00;0.28;147.20;;;;;5.50;1.00;;;;;;2288663;60;1023;-86
2021/01/09 01:07:01;1022812.00;3.41;1772.92;89229.00;0.30;154.98;;;;;5.50;1.00;;;;;;2288618;60;1514;-86
2021/01/09 01:09:35;982552.00;3.28;1701.59;86290.00;0.29;149.90;;;;;5.50;1.00;;;;;;2288578;60;1093;-85
2021/01/09 01:12:09;1166469.00;3.89;2029.71;86278.00;0.29;149.88;;;;;5.60;1.00;;;;;;2288704;60;932;-86
2021/01/09 01:14:48;863678.00;2.88;1492.41;89078.00;0.30;154.72;;;;;5.40;1.00;;;;;;2288529;60;1560;-85
2021/01/09 01:17:23;936400.00;3.12;1620.14;0.00;0.00;0.62;;;;;5.30;1.00;;;;;;2288615;60;1451;-85
2021/01/09 01:19:52;681995.00;2.27;1176.03;0.00;0.00;0.62;;;;;4.90;1.00;;;;;;2275807;61;1043;-86
2021/01/09 01:22:26;890303.00;2.97;1539.10;0.00;0.00;0.62;;;;;5.00;1.00;;;;;;2275900;61;1023;-86
2021/01/09 01:27:58;817777.00;2.73;1412.14;42764.00;0.14;74.67;;;;;5.30;1.00;;;;;;2275385;61;1146;-86
2021/01/09 01:30:44;983832.00;3.28;1703.86;0.00;0.00;0.62;;;;;5.30;1.00;;;;;;2275219;61;1012;-86
2021/01/09 01:33:17;599352.00;2.00;1033.10;0.00;0.00;0.62;;;;;5.40;1.00;;;;;;2263850;61;1289;-86
2021/01/09 01:35:50;832002.00;2.77;1436.99;0.00;0.00;0.62;;;;;5.20;1.00;;;;;;2267656;61;2069;-85
2021/01/09 01:38:21;750229.00;2.50;1294.46;0.00;0.00;0.62;;;;;5.50;1.00;;;;;;2276245;61;1024;-85
2021/01/09 01:44:11;735524.00;2.45;1268.90;0.00;0.00;0.62;;;;;5.40;1.00;;;;;;2278656;61;1216;-85
2021/01/09 01:46:53;637256.00;2.12;1098.59;0.00;0.00;0.62;;;;;5.40;1.00;;;;;;2279866;61;1504;-86
2021/01/09 01:49:24;600267.00;2.00;1034.68;0.00;0.00;0.62;;;;;5.40;1.00;;;;;;2267661;61;984;-86
2021/01/09 01:51:57;754661.00;2.52;1302.16;0.00;0.00;0.62;;;;;5.50;1.00;;;;;;2267731;61;930;-85
2021/01/09 01:54:33;821805.00;2.74;1419.18;46747.00;0.16;81.56;;;;;5.70;1.00;;;;;;2274056;61;940;-85
2021/01/09 01:57:09;893200.00;2.98;1544.18;16835.00;0.06;29.79;;;;;5.70;1.00;;;;;;2275766;61;1998;-85
2021/01/09 01:59:39;707289.00;2.36;1219.88;0.00;0.00;0.62;;;;;5.50;1.00;;;;;;2275829;61;981;-86
2021/01/09 02:02:09;690085.00;2.30;1190.05;0.00;0.00;0.62;;;;;5.40;1.00;;;;;;2275805;61;1196;-86
2021/01/09 02:04:41;665034.00;2.22;1146.65;0.00;0.00;0.62;;;;;5.40;1.00;;;;;;2275786;61;1090;-85
2021/01/09 02:07:26;;;;;;;;;;;;;;;;;;;;;
2021/01/09 02:10:06;508597.00;1.70;876.63;0.00;0.00;0.62;;;;;5.20;1.00;;;;;;2288194;60;1533;-85
2021/01/09 02:12:51;631541.00;2.11;1088.71;0.00;0.00;0.62;;;;;5.40;1.00;;;;;;2288466;60;1217;-85
2021/01/09 02:15:27;612400.00;2.04;1055.64;0.00;0.00;0.62;;;;;5.60;1.00;;;;;;2288420;60;1917;-86
2021/01/09 02:18:05;649990.00;2.17;1120.62;0.00;0.00;0.62;;;;;5.40;1.00;;;;;;2288464;60;1070;-86
2021/01/09 02:20:48;645684.00;2.15;1113.17;0.00;0.00;0.62;;;;;5.40;1.00;;;;;;2288441;60;1207;-85
2021/01/09 02:23:39;554161.00;1.85;955.13;0.00;0.00;0.62;;;;;5.50;1.00;;;;;;2289023;60;1130;-85
2021/01/09 02:26:14;573118.00;1.91;987.83;0.00;0.00;0.62;;;;;5.50;1.00;;;;;;2289167;60;1466;-86
2021/01/09 02:28:49;702653.00;2.34;1211.84;0.00;0.00;0.62;;;;;5.70;1.00;;;;;;2289122;60;1093;-85
2021/01/09 02:31:25;784707.00;2.62;1354.47;0.00;0.00;0.62;;;;;5.20;1.00;;;;;;2289129;60;1117;-85
2021/01/09 02:33:53;532151.00;1.77;917.20;0.00;0.00;0.62;;;;;5.00;1.00;;;;;;2289146;60;1169;-84
2021/01/09 02:36:26;118411720.00;394.71;67254688.00;0.00;0.00;0.62;;;;;5.20;1.00;;;;;;2289075;60;2007;-86
2021/01/09 02:39:04;521857.00;1.74;899.46;0.00;0.00;0.62;;;;;5.30;1.00;;;;;;2289199;60;1028;-85
2021/01/09 02:41:36;743201.00;2.48;1282.24;0.00;0.00;0.62;;;;;5.40;1.00;;;;;;2289020;60;1116;-85
2021/01/09 02:44:16;747353.00;2.49;1289.46;0.00;0.00;0.62;;;;;5.40;1.00;;;;;;2289139;60;1156;-85
2021/01/09 02:47:12;854417.00;2.85;1476.20;0.00;0.00;0.62;;;;;5.60;1.00;;;;;;2289126;60;1441;-84
2021/01/09 02:49:41;748175.00;2.49;1290.88;0.00;0.00;0.62;;;;;5.70;1.00;;;;;;2289046;60;1110;-86
2021/01/09 02:52:17;669102.00;2.23;1153.70;0.00;0.00;0.62;;;;;5.50;1.00;;;;;;2289083;60;1033;-86
2021/01/09 02:54:51;614011.00;2.05;1058.42;0.00;0.00;0.62;;;;;5.40;1.00;;;;;;2289058;60;992;-86
2021/01/09 02:57:29;850119.00;2.83;1468.68;0.00;0.00;0.62;;;;;5.30;1.00;;;;;;2289012;60;2014;-86
2021/01/09 02:59:57;725461.00;2.42;1251.42;0.00;0.00;0.62;;;;;5.30;1.00;;;;;;2289035;60;968;-86
2021/01/09 03:02:28;765069.00;2.55;1320.27;0.00;0.00;0.62;;;;;5.30;1.00;;;;;;2289040;60;1149;-85
2021/01/09 03:04:57;675140.00;2.25;1164.15;0.00;0.00;0.62;;;;;5.30;1.00;;;;;;2289057;60;1118;-87
2021/01/09 03:07:25;699875.00;2.33;1207.02;0.00;0.00;0.62;;;;;5.70;1.00;;;;;;2289047;60;1008;-85
2021/01/09 03:09:59;637747.00;2.13;1099.44;0.00;0.00;0.62;;;;;5.70;1.00;;;;;;2289003;60;1112;-85
2021/01/09 03:12:31;553466.00;1.84;953.93;0.00;0.00;0.62;;;;;5.60;1.00;;;;;;2289038;60;1004;-86
2021/01/09 03:15:08;694034.00;2.31;1196.89;0.00;0.00;0.62;;;;;5.60;1.00;;;;;;2288991;60;1297;-87
2021/01/09 03:17:38;809695.00;2.70;1398.04;0.00;0.00;0.62;;;;;5.50;1.00;;;;;;2288979;60;1133;-86
2021/01/09 03:20:07;689307.00;2.30;1188.70;0.00;0.00;0.62;;;;;5.60;1.00;;;;;;2288972;60;994;-85
2021/01/09 03:22:42;591103.00;1.97;1018.86;0.00;0.00;0.62;;;;;5.60;1.00;;;;;;2288959;60;1066;-85
2021/01/09 03:25:16;705350.00;2.35;1216.52;0.00;0.00;0.62;;;;;5.50;1.00;;;;;;2288970;60;1379;-86
2021/01/09 03:27:46;579074.00;1.93;998.10;0.00;0.00;0.62;;;;;5.40;1.00;;;;;;2280355;61;955;-85
2021/01/09 03:30:32;521413.00;1.74;898.70;0.00;0.00;0.62;;;;;5.60;1.00;;;;;;2280308;61;1104;-85
2021/01/09 03:33:08;706601.00;2.36;1218.69;0.00;0.00;0.62;;;;;5.50;1.00;;;;;;2280276;61;1067;-85
2021/01/09 03:35:41;691279.00;2.30;1192.12;0.00;0.00;0.62;;;;;5.30;1.00;;;;;;2272017;61;2012;-85
2021/01/09 03:38:13;616461.00;2.05;1062.65;0.00;0.00;0.62;;;;;5.30;1.00;;;;;;2272116;61;983;-86
2021/01/09 03:40:43;122800032.00;409.33;75020088.00;0.00;0.00;0.62;;;;;5.50;1.00;;;;;;2272106;61;1107;-85
2021/01/09 03:43:18;716053.00;2.39;1235.09;0.00;0.00;0.62;;;;;5.60;1.00;;;;;;2272097;61;1145;-86
2021/01/09 03:45:57;544674.00;1.82;938.78;0.00;0.00;0.62;;;;;5.60;1.00;;;;;;2272050;61;1749;-85
2021/01/09 03:48:29;736461.00;2.45;1270.53;0.00;0.00;0.62;;;;;5.60;1.00;;;;;;2272143;61;1135;-85
2021/01/09 03:51:06;676401.00;2.25;1166.34;0.00;0.00;0.62;;;;;5.30;1.00;;;;;;2272115;61;1117;-86
2021/01/09 03:53:52;508176.00;1.69;875.90;0.00;0.00;0.62;;;;;5.30;1.00;;;;;;2276205;61;1177;-86
2021/01/09 03:56:24;626868.00;2.09;1080.64;14614.00;0.05;25.94;;;;;5.40;1.00;;;;;;2278414;61;1916;-86
2021/01/09 03:58:51;661876.00;2.21;1141.19;0.00;0.00;0.62;;;;;5.40;1.00;;;;;;2280292;61;1069;-86
2021/01/09 04:01:20;643872.00;2.15;1110.04;0.00;0.00;0.62;;;;;5.60;1.00;;;;;;2288650;60;1090;-86
2021/01/09 04:06:31;684892.00;2.28;1181.05;0.00;0.00;0.62;;;;;5.60;1.00;;;;;;2288605;60;1373;-86
2021/01/09 04:09:03;703309.00;2.34;1212.98;0.00;0.00;0.62;;;;;5.60;1.00;;;;;;2288836;60;1129;-87
2021/01/09 04:11:46;816794.00;2.72;1410.43;0.00;0.00;0.62;;;;;5.60;1.00;;;;;;2288836;60;1129;-86
2021/01/09 04:14:29;657786.00;2.19;1134.11;0.00;0.00;0.62;;;;;5.70;1.00;;;;;;2288749;60;1017;-86
2021/01/09 04:17:00;858501.00;2.86;1483.35;55943.00;0.19;97.46;;;;;5.60;1.00;;;;;;2288739;60;2000;-86
2021/01/09 04:19:44;122415264.00;408.05;74316456.00;0.00;0.00;0.62;;;;;5.70;1.00;;;;;;2276073;61;964;-87
2021/01/09 04:22:14;847402.00;2.82;1463.92;26967.00;0.09;47.33;;;;;5.70;1.00;;;;;;2276046;61;1034;-86
2021/01/09 04:24:51;677031.00;2.26;1167.43;0.00;0.00;0.62;;;;;5.60;1.00;;;;;;2276049;61;1116;-86
2021/01/09 04:27:24;709156.00;2.36;1223.12;0.00;0.00;0.62;;;;;5.50;1.00;;;;;;2276023;61;1873;-86
2021/01/09 04:32:59;580353.00;1.93;1000.31;0.00;0.00;0.62;;;;;5.60;1.00;;;;;;2275566;61;1149;-86
2021/01/09 04:35:40;667084.00;2.22;1150.20;0.00;0.00;0.62;;;;;5.60;1.00;;;;;;2275960;61;2026;-86
2021/01/09 04:38:16;621976.00;2.07;1072.18;0.00;0.00;0.62;;;;;5.70;1.00;;;;;;2286165;60;913;-86
2021/01/09 04:40:51;602870.00;2.01;1039.18;0.00;0.00;0.62;;;;;5.60;1.00;;;;;;2288628;60;976;-86
2021/01/09 04:43:23;610791.00;2.04;1052.86;0.00;0.00;0.62;;;;;5.50;1.00;;;;;;2288772;60;1152;-86
2021/01/09 04:46:10;672829.00;2.24;1160.15;0.00;0.00;0.62;;;;;5.60;1.00;;;;;;2287935;60;1730;-86
2021/01/09 04:48:48;622564.00;2.08;1073.20;0.00;0.00;0.62;;;;;5.30;1.00;;;;;;2288728;60;1078;-84
2021/01/09 04:51:25;730504.00;2.44;1260.18;0.00;0.00;0.62;;;;;5.40;1.00;;;;;;2288717;60;921;-88
2021/01/09 04:54:12;657592.00;2.19;1133.77;0.00;0.00;0.62;;;;;5.30;1.00;;;;;;2288627;60;1071;-86
2021/01/09 04:56:54;605093.00;2.02;1043.01;0.00;0.00;0.62;;;;;5.20;1.00;;;;;;2279881;61;1915;-87
2021/01/09 04:59:30;132650464.00;442.17;94581440.00;52866.00;0.18;92.14;;;;;5.20;1.00;;;;;;2280032;61;1093;-86
2021/01/09 05:02:06;590637.00;1.97;1018.06;0.00;0.00;0.62;;;;;5.30;1.00;;;;;;2280040;61;1752;-86
2021/01/09 05:04:45;741414.00;2.47;1279.13;0.00;0.00;0.62;;;;;5.50;1.00;;;;;;2279967;61;1668;-87
2021/01/09 05:07:16;610244.00;2.03;1051.91;0.00;0.00;0.62;;;;;5.30;1.00;;;;;;2280047;61;1458;-86
2021/01/09 05:09:51;509961.00;1.70;878.98;0.00;0.00;0.62;;;;;5.40;1.00;;;;;;2280004;61;1129;-86
2021/01/09 05:12:26;719926.00;2.40;1241.81;25676.00;0.09;45.10;;;;;5.30;1.00;;;;;;2279986;61;1136;-86
2021/01/09 05:15:08;;;;;;;;;;;;;;;;;;;;;
2021/01/09 05:17:57;599229.00;2.00;1032.89;0.00;0.00;0.62;;;;;5.50;1.00;;;;;;2279928;61;1992;-86
2021/01/09 05:20:45;595699.00;1.99;1026.79;0.00;0.00;0.62;;;;;5.60;1.00;;;;;;2281716;60;1121;-85
2021/01/09 05:23:29;659051.00;2.20;1136.30;0.00;0.00;0.62;;;;;5.30;1.00;;;;;;2285475;60;1082;-85
2021/01/09 05:26:05;720389.00;2.40;1242.61;37282.00;0.12;65.19;;;;;5.30;1.00;;;;;;2288440;60;1703;-86
2021/01/09 05:29:04;683065.00;2.28;1177.88;0.00;0.00;0.62;;;;;5.20;1.00;;;;;;2288571;60;1004;-86
2021/01/09 05:31:47;711234.00;2.37;1226.72;0.00;0.00;0.62;;;;;5.30;1.00;;;;;;2288551;60;1084;-87
2021/01/09 05:34:35;620818.00;2.07;1070.18;0.00;0.00;0.62;;;;;5.40;1.00;;;;;;2288492;60;1055;-85
2021/01/09 05:37:26;751111.00;2.50;1295.99;0.00;0.00;0.62;;;;;5.40;1.00;;;;;;2288504;60;2007;-85
2021/01/09 05:40:12;651061.00;2.17;1122.47;0.00;0.00;0.62;;;;;5.40;1.00;;;;;;2288555;60;1313;-86
2021/01/09 05:42:51;651179.00;2.17;1122.68;0.00;0.00;0.62;;;;;5.40;1.00;;;;;;2288505;60;1176;-86
2021/01/09 05:45:38;608696.00;2.03;1049.24;0.00;0.00;0.62;;;;;5.30;1.00;;;;;;2288484;60;1382;-86
2021/01/09 05:48:32;745378.00;2.48;1286.02;0.00;0.00;0.62;;;;;5.40;1.00;;;;;;2288557;60;1019;-86
2021/01/09 05:51:06;863818.00;2.88;1492.66;91588.00;0.31;159.05;;;;;5.40;1.00;;;;;;2288489;60;1237;-86
2021/01/09 05:53:52;510696.00;1.70;880.24;0.00;0.00;0.62;;;;;5.30;1.00;;;;;;2288528;60;1173;-87
2021/01/09 05:56:41;723885.00;2.41;1248.68;0.00;0.00;0.62;;;;;5.40;1.00;;;;;;2288421;60;1996;-86
2021/01/09 05:59:41;703807.00;2.35;1213.84;0.00;0.00;0.62;;;;;5.40;1.00;;;;;;2289262;60;1105;-87
2021/01/09 06:02:17;844365.00;2.81;1458.61;95235.00;0.32;165.35;;;;;5.40;1.00;;;;;;2289235;60;1085;-86
2021/01/09 06:04:53;126644040.00;422.15;82295216.00;0.00;0.00;0.62;;;;;5.30;1.00;;;;;;2289252;60;1153;-86
2021/01/09 06:07:35;570505.00;1.90;983.32;0.00;0.00;0.62;;;;;5.20;1.00;;;;;;2289182;60;1480;-86
2021/01/09 06:10:23;714797.00;2.38;1232.91;0.00;0.00;0.62;;;;;5.10;1.00;;;;;;2289074;60;1295;-86
2021/01/09 06:13:13;658172.00;2.19;1134.78;0.00;0.00;0.62;;;;;5.10;1.00;;;;;;2289242;60;940;-86
2021/01/09 06:15:47;552843.00;1.84;952.86;0.00;0.00;0.62;;;;;5.10;1.00;;;;;;2289168;60;2001;-85
2021/01/09 06:18:22;772407.00;2.57;1333.04;0.00;0.00;0.62;;;;;5.10;1.00;;;;;;2289214;60;1077;-86
2021/01/09 06:20:53;677522.00;2.26;1168.28;0.00;0.00;0.62;;;;;5.10;1.00;;;;;;2289098;60;940;-87
2021/01/09 06:23:22;631657.00;2.11;1088.91;0.00;0.00;0.62;;;;;5.00;1.00;;;;;;2289191;60;1786;-86
2021/01/09 06:25:53;723288.00;2.41;1247.65;0.00;0.00;0.62;;;;;5.10;1.00;;;;;;2289143;60;1355;-87
2021/01/09 06:28:37;617545.00;2.06;1064.52;0.00;0.00;0.62;;;;;5.10;1.00;;;;;;2289200;60;1052;-86
2021/01/09 06:31:21;134478048.00;448.26;98548880.00;0.00;0.00;0.62;;;;;5.30;1.00;;;;;;2289161;60;1041;-86
2021/01/09 06:33:53;629094.00;2.10;1084.48;0.00;0.00;0.62;;;;;5.50;1.00;;;;;;2289181;60;1141;-84
2021/01/09 06:36:23;711275.00;2.37;1226.80;0.00;0.00;0.62;;;;;5.10;1.00;;;;;;2288702;60;1996;-88
2021/01/09 06:38:57;691105.00;2.30;1191.82;0.00;0.00;0.62;;;;;5.80;1.00;;;;;;2281797;60;1184;-88
2021/01/09 06:44:24;702714.00;2.34;1211.95;0.00;0.00;0.62;;;;;7.30;1.00;;;;;;2288776;60;1701;-87
2021/01/09 06:47:12;759714.00;2.53;1310.95;24775.00;0.08;43.54;;;;;6.70;1.00;;;;;;2288861;60;1567;-87
2021/01/09 06:49:46;658063.00;2.19;1134.59;0.00;0.00;0.62;;;;;6.90;1.00;;;;;;2289070;60;1306;-88
2021/01/09 06:52:43;857354.00;2.86;1481.34;0.00;0.00;0.62;;;;;7.30;1.00;;;;;;2289080;60;1125;-89
2021/01/09 06:55:26;539085.00;1.80;929.15;0.00;0.00;0.62;;;;;7.70;1.00;;;;;;2288802;60;1693;-88
2021/01/09 06:58:06;566944.00;1.89;977.18;0.00;0.00;0.62;;;;;7.90;1.00;;;;;;2288926;60;1494;-88
2021/01/09 07:00:40;965172.00;3.22;1670.88;93847.00;0.31;162.95;;;;;7.80;1.00;;;;;;2289026;60;1028;-88
2021/01/09 07:03:22;689104.00;2.30;1188.35;0.00;0.00;0.62;;;;;7.60;1.00;;;;;;2288935;60;1546;-88
2021/01/09 07:05:54;914372.00;3.05;1581.38;87536.00;0.29;152.05;;;;;7.30;1.00;;;;;;2288986;60;1380;-87
2021/01/09 07:08:43;866336.00;2.89;1497.07;95500.00;0.32;165.80;;;;;6.90;1.00;;;;;;2288924;60;931;-87
2021/01/09 07:11:16;678240.00;2.26;1169.52;0.00;0.00;0.62;;;;;6.50;1.00;;;;;;2288872;60;1008;-87
2021/01/09 07:14:02;606544.00;2.02;1045.52;0.00;0.00;0.62;;;;;6.40;1.00;;;;;;2288993;60;1086;-87
2021/01/09 07:16:38;784129.00;2.61;1353.46;94068.00;0.31;163.33;;;;;6.20;1.00;;;;;;2288552;60;1918;-88
2021/01/09 07:19:23;782432.00;2.61;1350.50;75175.00;0.25;130.70;;;;;6.00;1.00;;;;;;2288980;60;1132;-89
2021/01/09 07:22:06;705597.00;2.35;1216.95;87164.00;0.29;151.41;;;;;6.00;1.00;;;;;;2288969;60;1105;-88
2021/01/09 07:24:51;1028617.00;3.43;1783.22;102302.00;0.34;177.55;;;;;5.80;1.00;;;;;;2288959;60;1201;-87
2021/01/09 07:27:33;731408.00;2.44;1261.75;0.00;0.00;0.62;;;;;5.80;1.00;;;;;;2288921;60;1367;-89
2021/01/09 07:30:13;674158.00;2.25;1162.45;0.00;0.00;0.62;;;;;5.60;1.00;;;;;;2288975;60;941;-86
2021/01/09 07:32:52;580464.00;1.93;1000.50;0.00;0.00;0.62;;;;;5.50;1.00;;;;;;2288870;60;1276;-86
2021/01/09 07:35:30;668313.00;2.23;1152.33;0.00;0.00;0.62;;;;;5.70;1.00;;;;;;2288829;60;1461;-87
2021/01/09 07:38:14;631013.00;2.10;1087.80;0.00;0.00;0.62;;;;;5.30;1.00;;;;;;2288624;60;936;-87
2021/01/09 07:40:58;760655.00;2.54;1312.59;0.00;0.00;0.62;;;;;5.70;1.00;;;;;;2288876;60;1087;-87
2021/01/09 07:43:42;616248.00;2.05;1062.28;0.00;0.00;0.62;;;;;6.20;1.00;;;;;;2288851;60;1734;-88
2021/01/09 07:46:46;599334.00;2.00;1033.07;0.00;0.00;0.62;;;;;6.40;1.00;;;;;;2288514;60;1348;-87
2021/01/09 07:49:26;813273.00;2.71;1404.28;88503.00;0.30;153.72;;;;;6.90;1.00;;;;;;2288894;60;1287;-89
2021/01/09 07:52:14;634727.00;2.12;1094.22;99707.00;0.33;173.07;;;;;7.00;1.00;;;;;;2278411;60;1014;-89
2021/01/09 07:54:55;826591.00;2.76;1427.54;90752.00;0.30;157.61;;;;;7.30;1.00;;;;;;2280070;61;943;-88
2021/01/09 07:57:31;705341.00;2.35;1216.50;92955.00;0.31;161.41;;;;;7.60;1.00;;;;;;2280372;61;1989;-89
2021/01/09 08:00:15;537551.00;1.79;926.50;0.00;0.00;0.62;;;;;7.60;1.00;;;;;;2280199;61;1135;-88
2021/01/09 08:02:54;651719.00;2.17;1123.61;0.00;0.00;0.62;;;;;7.60;1.00;;;;;;2280115;61;1562;-88
2021/01/09 08:05:33;671949.00;2.24;1158.63;0.00;0.00;0.62;;;;;7.40;1.00;;;;;;2280070;61;1422;-89
2021/01/09 08:08:05;817592.00;2.73;1411.82;84446.00;0.28;146.72;;;;;6.50;1.00;;;;;;2280244;61;945;-89
2021/01/09 08:10:42;811328.00;2.70;1400.89;95814.00;0.32;166.35;;;;;5.70;1.00;;;;;;2279960;61;1619;-88
2021/01/09 08:13:17;832342.00;2.77;1437.59;102320.00;0.34;177.58;;;;;5.80;1.00;;;;;;2286168;60;1085;-88
2021/01/09 08:15:56;125369272.00;417.90;79832736.00;118242.00;0.39;205.05;;;;;5.60;1.00;;;;;;2288701;60;1917;-88
2021/01/09 08:18:29;795315.00;2.65;1372.95;54460.00;0.18;94.90;;;;;4.90;1.00;;;;;;2288657;60;1227;-88
2021/01/09 08:20:59;874671.00;2.92;1511.68;95302.00;0.32;165.46;;;;;4.70;1.00;;;;;;2288577;60;938;-87
2021/01/09 08:23:29;770604.00;2.57;1329.90;27284.00;0.09;47.88;;;;;4.90;1.00;;;;;;2288600;60;1044;-89
2021/01/09 08:25:58;811654.00;2.71;1401.46;70152.00;0.23;122.02;;;;;4.90;1.00;;;;;;2288447;60;1379;-89
2021/01/09 08:28:46;727133.00;2.42;1254.32;0.00;0.00;0.62;;;;;4.30;1.00;;;;;;2288483;60;1540;-88
2021/01/09 08:31:18;809039.00;2.70;1396.89;92057.00;0.31;159.86;;;;;3.80;1.00;;;;;;2288762;60;1001;-88
2021/01/09 08:33:50;1187338.00;3.96;2067.34;122928.00;0.41;213.13;;;;;3.80;1.00;;;;;;2288539;60;1876;-88
2021/01/09 08:36:20;950603.00;3.17;1645.17;84999.00;0.28;147.67;;;;;3.90;1.00;;;;;;2288585;60;2014;-90
2021/01/09 08:38:52;875534.00;2.92;1513.19;86217.00;0.29;149.78;;;;;4.00;1.00;;;;;;2288743;60;1088;-89
2021/01/09 08:41:25;920505.00;3.07;1592.16;95768.00;0.32;166.27;;;;;3.90;1.00;;;;;;2288568;60;1132;-88
2021/01/09 08:44:06;1218892.00;4.06;2124.41;96887.00;0.32;168.20;;;;;3.60;1.00;;;;;;2288492;60;1624;-88
2021/01/09 08:46:39;1168012.00;3.89;2032.49;87825.00;0.29;152.55;;;;;3.70;1.00;;;;;;2281247;60;1276;-88
2021/01/09 08:49:08;1140360.00;3.80;1982.75;94521.00;0.32;164.11;;;;;4.20;1.00;;;;;;2275731;61;1690;-88
2021/01/09 08:51:41;902940.00;3.01;1561.28;96120.00;0.32;166.87;;;;;4.70;1.00;;;;;;2275884;61;1073;-88
2021/01/09 08:54:14;932459.00;3.11;1613.20;96457.00;0.32;167.46;;;;;4.20;1.00;;;;;;2275789;61;941;-89
2021/01/09 08:56:47;915200.00;3.05;1582.83;88660.00;0.30;153.99;;;;;4.00;1.00;;;;;;2275797;61;1996;-90
2021/01/09 08:59:22;1132275.00;3.77;1968.24;90217.00;0.30;156.68;;;;;4.00;1.00;;;;;;2275831;61;1135;-89
2021/01/09 09:01:54;1042721.00;3.48;1808.28;90125.00;0.30;156.52;;;;;4.60;1.00;;;;;;2275828;61;1072;-89
2021/01/09 09:04:22;1167675.00;3.89;2031.88;88925.00;0.30;154.45;;;;;4.50;1.00;;;;;;2275879;61;1235;-88
2021/01/09 09:07:03;677532.00;2.26;1168.30;60759.00;0.20;105.79;;;;;4.40;1.00;;;;;;2278814;60;1610;-88
2021/01/09 09:09:34;1036575.00;3.46;1797.36;87099.00;0.29;151.30;;;;;4.40;1.00;;;;;;2284062;60;1526;-89
2021/01/09 09:12:04;1261399.00;4.20;2201.63;98105.00;0.33;170.30;;;;;4.60;1.00;;;;;;2284041;60;1080;-89
2021/01/09 09:14:34;1156566.00;3.86;2011.89;90714.00;0.30;157.54;;;;;5.10;1.00;;;;;;2283877;60;1605;-89
2021/01/09 09:17:03;849462.00;2.83;1467.53;64156.00;0.21;111.66;;;;;5.60;1.00;;;;;;2283904;60;1954;-88
2021/01/09 09:19:38;120280584.00;400.94;70492616.00;0.00;0.00;0.62;;;;;6.10;1.00;;;;;;2285520;60;1730;-90
2021/01/09 09:22:10;125038504.00;416.80;79201920.00;90106.00;0.30;156.49;;;;;6.00;1.00;;;;;;2288543;60;1105;-89
2021/01/09 09:24:43;788280.00;2.63;1360.69;76779.00;0.26;133.47;;;;;5.80;1.00;;;;;;2288458;60;1673;-89
2021/01/09 09:27:29;634235.00;2.11;1093.37;0.00;0.00;0.62;;;;;5.50;1.00;;;;;;2288461;60;1398;-88
2021/01/09 09:30:17;662463.00;2.21;1142.20;0.00;0.00;0.62;;;;;5.50;1.00;;;;;;2288504;60;1208;-88
2021/01/09 09:32:47;551823.00;1.84;951.10;0.00;0.00;0.62;;;;;5.60;1.00;;;;;;2288546;60;1354;-88
2021/01/09 09:35:24;708146.00;2.36;1221.37;0.00;0.00;0.62;;;;;5.70;1.00;;;;;;2288486;60;1581;-88
2021/01/09 09:37:59;685125.00;2.28;1181.45;0.00;0.00;0.62;;;;;5.80;1.00;;;;;;2288543;60;1997;-89
2021/01/09 09:40:30;622297.00;2.07;1072.74;0.00;0.00;0.62;;;;;6.20;1.00;;;;;;2288520;60;1153;-89
2021/01/09 09:43:13;547988.00;1.83;944.49;0.00;0.00;0.62;;;;;6.40;1.00;;;;;;2288496;60;1006;-87
2021/01/09 09:45:57;622897.00;2.08;1073.77;0.00;0.00;0.62;;;;;6.30;1.00;;;;;;2288474;60;1391;-89
2021/01/09 09:48:37;639426.00;2.13;1102.35;0.00;0.00;0.62;;;;;6.80;1.00;;;;;;2288472;60;1179;-90
2021/01/09 09:51:09;713277.00;2.38;1230.27;0.00;0.00;0.62;;;;;6.90;1.00;;;;;;2288459;60;1100;-89
2021/01/09 09:53:48;680146.00;2.27;1172.83;0.00;0.00;0.62;;;;;6.90;1.00;;;;;;2288478;60;996;-88
2021/01/09 09:56:18;650693.00;2.17;1121.84;0.00;0.00;0.62;;;;;6.80;1.00;;;;;;2288401;60;2007;-89
2021/01/09 09:58:46;931420.00;3.10;1611.37;0.00;0.00;0.62;;;;;6.60;1.00;;;;;;2288518;60;921;-89
2021/01/09 10:01:22;643873.00;2.15;1110.04;0.00;0.00;0.62;;;;;7.00;1.00;;;;;;2288415;60;1577;-89
2021/01/09 10:03:50;600615.00;2.00;1035.28;0.00;0.00;0.62;;;;;6.90;1.00;;;;;;2288485;60;1144;-87
2021/01/09 10:06:36;707195.00;2.36;1219.72;0.00;0.00;0.62;;;;;7.00;1.00;;;;;;2288491;60;1283;-89
2021/01/09 10:09:17;665717.00;2.22;1147.84;0.00;0.00;0.62;;;;;7.20;1.00;;;;;;2288432;60;1054;-88
2021/01/09 10:11:59;709131.00;2.36;1223.08;0.00;0.00;0.62;;;;;7.60;1.00;;;;;;2288479;60;1004;-88
2021/01/09 10:14:39;512959.00;1.71;884.14;0.00;0.00;0.62;;;;;7.70;1.00;;;;;;2288448;60;918;-88
2021/01/09 10:17:13;573559.00;1.91;988.59;0.00;0.00;0.62;;;;;7.70;1.00;;;;;;2288330;60;2004;-89
2021/01/09 10:19:52;605540.00;2.02;1043.79;28297.00;0.09;49.64;;;;;7.30;1.00;;;;;;2288309;60;1760;-89
2021/01/09 10:22:22;568811.00;1.90;980.40;0.00;0.00;0.62;;;;;7.10;1.00;;;;;;2288418;60;937;-88
2021/01/09 10:24:49;552189.00;1.84;951.73;0.00;0.00;0.62;;;;;7.50;1.00;;;;;;2288412;60;947;-87
2021/01/09 10:27:16;668850.00;2.23;1153.26;0.00;0.00;0.62;;;;;8.00;1.00;;;;;;2288226;60;1618;-89
2021/01/09 10:29:44;588550.00;1.96;1014.45;0.00;0.00;0.62;;;;;8.50;1.00;;;;;;2288297;60;977;-88
2021/01/09 10:32:23;589675.00;1.97;1016.40;0.00;0.00;0.62;;;;;8.30;1.00;;;;;;2288273;60;1743;-88
2021/01/09 10:34:53;130223016.00;434.08;89478560.00;5326.00;0.02;9.85;;;;;8.00;1.00;;;;;;2288382;60;1074;-88
2021/01/09 10:37:33;536251.00;1.79;924.26;0.00;0.00;0.62;;;;;7.30;1.00;;;;;;2288306;60;2014;-88
2021/01/09 10:40:03;671918.00;2.24;1158.57;0.00;0.00;0.62;;;;;6.60;1.00;;;;;;2288312;60;954;-89
2021/01/09 10:42:34;679876.00;2.27;1172.36;0.00;0.00;0.62;;;;;6.40;1.00;;;;;;2288368;60;967;-89
2021/01/09 10:45:07;778396.00;2.59;1343.47;0.00;0.00;0.62;;;;;6.60;1.00;;;;;;2288993;60;1732;-88